createdAt,value
2022-12-19T00:00:42.188Z,1015.5
2022-12-19T00:01:43.314Z,1015.5
2022-12-19T00:02:42.443Z,1015.4
2022-12-19T00:03:42.260Z,1015.4
2022-12-19T00:04:42.178Z,1015.3
2022-12-19T00:05:42.181Z,1015.3
2022-12-19T00:06:44.032Z,1015.3
2022-12-19T00:07:42.299Z,1015.3
2022-12-19T00:08:42.180Z,1015.3
2022-12-19T00:09:42.175Z,1015.2
2022-12-19T00:10:42.179Z,1015.2
2022-12-19T00:11:42.184Z,1015.2
2022-12-19T00:12:42.190Z,1015.1
2022-12-19T00:13:42.178Z,1015.1
2022-12-19T00:14:42.281Z,1015.1
2022-12-19T00:15:42.185Z,1015.1
2022-12-19T00:16:42.275Z,1015.1
2022-12-19T00:17:42.181Z,1015.2
2022-12-19T00:18:42.200Z,1015.2
2022-12-19T00:19:42.280Z,1015.2
2022-12-19T00:20:42.184Z,1015.2
2022-12-19T00:21:42.183Z,1015.1
2022-12-19T00:22:42.192Z,1015.1
2022-12-19T00:23:42.182Z,1015.1
2022-12-19T00:24:42.240Z,1015.1
2022-12-19T00:25:42.179Z,1015.1
2022-12-19T00:27:42.180Z,1015.1
2022-12-19T00:28:42.180Z,1015.1
2022-12-19T00:29:42.182Z,1015.1
2022-12-19T00:30:42.202Z,1015.1
2022-12-19T00:31:42.305Z,1015.1
2022-12-19T00:32:42.176Z,1015.2
2022-12-19T00:33:43.554Z,1015.1
2022-12-19T00:34:42.181Z,1015.1
2022-12-19T00:35:42.174Z,1015.1
2022-12-19T00:36:42.179Z,1015.1
2022-12-19T00:37:46.489Z,1015.1
2022-12-19T00:38:42.310Z,1015
2022-12-19T00:39:42.173Z,1015.1
2022-12-19T00:40:42.184Z,1015
2022-12-19T00:41:42.645Z,1015
2022-12-19T00:43:42.178Z,1014.9
2022-12-19T00:44:42.181Z,1014.9
2022-12-19T00:45:42.229Z,1014.9
2022-12-19T00:46:42.171Z,1014.9
2022-12-19T00:48:42.177Z,1014.9
2022-12-19T00:49:42.187Z,1014.9
2022-12-19T00:50:42.174Z,1014.9
2022-12-19T00:51:42.173Z,1014.9
2022-12-19T00:52:42.297Z,1014.9
2022-12-19T00:53:42.180Z,1014.9
2022-12-19T00:54:42.239Z,1014.9
2022-12-19T00:55:42.177Z,1014.9
2022-12-19T00:56:42.175Z,1014.8
2022-12-19T00:57:42.172Z,1014.8
2022-12-19T00:58:46.871Z,1014.8
2022-12-19T00:59:42.178Z,1014.8
2022-12-19T01:00:42.365Z,1014.8
2022-12-19T01:02:42.368Z,1014.7
2022-12-19T01:03:58.101Z,1014.7
2022-12-19T01:04:42.225Z,1014.7
2022-12-19T01:05:42.258Z,1014.6
2022-12-19T01:06:42.187Z,1014.7
2022-12-19T01:07:42.182Z,1014.6
2022-12-19T01:10:42.184Z,1014.7
2022-12-19T01:11:42.197Z,1014.6
2022-12-19T01:12:42.180Z,1014.5
2022-12-19T01:14:42.169Z,1014.6
2022-12-19T01:15:42.172Z,1014.6
2022-12-19T01:16:42.337Z,1014.6
2022-12-19T01:17:44.576Z,1014.6
2022-12-19T01:18:42.176Z,1014.7
2022-12-19T01:19:44.694Z,1014.6
2022-12-19T01:20:42.188Z,1014.6
2022-12-19T01:21:42.179Z,1014.7
2022-12-19T01:22:42.172Z,1014.7
2022-12-19T01:23:42.200Z,1014.6
2022-12-19T01:25:43.088Z,1014.6
2022-12-19T01:26:42.178Z,1014.4
2022-12-19T01:27:42.177Z,1014.5
2022-12-19T01:28:42.177Z,1014.5
2022-12-19T01:29:52.424Z,1014.5
2022-12-19T01:30:42.179Z,1014.5
2022-12-19T01:31:43.110Z,1014.5
2022-12-19T01:32:42.168Z,1014.4
2022-12-19T01:33:42.167Z,1014.4
2022-12-19T01:35:42.168Z,1014.4
2022-12-19T01:36:42.184Z,1014.4
2022-12-19T01:37:42.166Z,1014.5
2022-12-19T01:38:42.171Z,1014.4
2022-12-19T01:39:42.817Z,1014.4
2022-12-19T01:40:42.200Z,1014.4
2022-12-19T01:41:42.179Z,1014.4
2022-12-19T01:42:42.173Z,1014.3
2022-12-19T01:43:42.171Z,1014.3
2022-12-19T01:44:42.171Z,1014.4
2022-12-19T01:45:45.875Z,1014.3
2022-12-19T01:46:42.261Z,1014.3
2022-12-19T01:47:42.194Z,1014.3
2022-12-19T01:48:42.168Z,1014.3
2022-12-19T01:49:42.170Z,1014.2
2022-12-19T01:50:46.096Z,1014.2
2022-12-19T01:51:42.169Z,1014.3
2022-12-19T01:52:42.172Z,1014.2
2022-12-19T01:53:48.524Z,1014.2
2022-12-19T01:54:42.183Z,1014.1
2022-12-19T01:56:42.270Z,1014
2022-12-19T01:57:42.140Z,1013.9
2022-12-19T01:59:42.167Z,1013.8
2022-12-19T02:00:42.165Z,1013.9
2022-12-19T02:01:40.031Z,1013.8
2022-12-19T02:02:42.250Z,1013.8
2022-12-19T02:03:42.129Z,1013.8
2022-12-19T02:04:42.158Z,1013.9
2022-12-19T02:05:42.148Z,1013.8
2022-12-19T02:06:42.138Z,1013.7
2022-12-19T02:07:42.164Z,1013.6
2022-12-19T02:08:42.138Z,1013.6
2022-12-19T02:09:42.142Z,1013.7
2022-12-19T02:10:42.162Z,1013.6
2022-12-19T02:12:42.139Z,1013.6
2022-12-19T02:15:42.137Z,1013.4
2022-12-19T02:16:52.513Z,1013.3
2022-12-19T02:17:52.747Z,1013.2
2022-12-19T02:18:52.432Z,1013.2
2022-12-19T02:19:42.139Z,1013.2
2022-12-19T02:21:42.140Z,1013.1
2022-12-19T02:22:42.141Z,1013.1
2022-12-19T02:23:42.139Z,1013.2
2022-12-19T02:25:42.139Z,1013.2
2022-12-19T02:26:42.134Z,1013.2
2022-12-19T02:27:42.268Z,1013.1
2022-12-19T02:28:42.145Z,1013.1
2022-12-19T02:29:42.140Z,1013.1
2022-12-19T02:30:42.141Z,1013.1
2022-12-19T02:31:42.171Z,1013.1
2022-12-19T02:32:42.170Z,1013
2022-12-19T02:33:42.154Z,1013.1
2022-12-19T02:34:44.549Z,1013
2022-12-19T02:35:42.544Z,1013.1
2022-12-19T02:36:43.585Z,1013.1
2022-12-19T02:38:42.144Z,1013
2022-12-19T02:39:42.164Z,1013
2022-12-19T02:40:42.150Z,1013.1
2022-12-19T02:42:42.155Z,1013
2022-12-19T02:43:42.147Z,1012.9
2022-12-19T02:44:42.161Z,1012.9
2022-12-19T02:45:42.194Z,1013.1
2022-12-19T02:46:42.152Z,1013
2022-12-19T02:47:42.148Z,1012.9
2022-12-19T02:48:42.146Z,1012.9
2022-12-19T02:49:42.148Z,1012.9
2022-12-19T02:50:42.162Z,1012.9
2022-12-19T02:51:42.177Z,1012.9
2022-12-19T02:52:42.153Z,1012.8
2022-12-19T02:53:42.159Z,1012.8
2022-12-19T02:54:43.549Z,1012.8
2022-12-19T02:55:42.148Z,1012.8
2022-12-19T02:56:42.156Z,1012.8
2022-12-19T02:57:42.153Z,1012.8
2022-12-19T02:58:42.299Z,1012.9
2022-12-19T02:59:42.154Z,1012.8
2022-12-19T03:00:42.154Z,1012.8
2022-12-19T03:01:42.346Z,1012.8
2022-12-19T03:03:42.182Z,1012.9
2022-12-19T03:04:42.164Z,1012.9
2022-12-19T03:05:42.161Z,1013
2022-12-19T03:06:42.156Z,1012.9
2022-12-19T03:07:42.158Z,1012.9
2022-12-19T03:08:42.162Z,1013
2022-12-19T03:09:42.158Z,1012.9
2022-12-19T03:10:42.158Z,1012.8
2022-12-19T03:11:42.155Z,1012.9
2022-12-19T03:12:42.158Z,1012.8
2022-12-19T03:13:42.165Z,1012.8
2022-12-19T03:14:42.162Z,1012.9
2022-12-19T03:15:42.158Z,1012.8
2022-12-19T03:16:42.276Z,1012.8
2022-12-19T03:17:42.165Z,1012.8
2022-12-19T03:18:42.156Z,1012.7
2022-12-19T03:19:42.209Z,1012.8
2022-12-19T03:20:42.163Z,1012.9
2022-12-19T03:21:42.165Z,1013
2022-12-19T03:22:42.167Z,1012.9
2022-12-19T03:23:42.159Z,1012.8
2022-12-19T03:25:42.166Z,1012.8
2022-12-19T03:26:42.162Z,1012.8
2022-12-19T03:27:42.170Z,1013
2022-12-19T03:28:42.166Z,1012.8
2022-12-19T03:29:42.282Z,1012.9
2022-12-19T03:31:42.163Z,1012.8
2022-12-19T03:32:42.197Z,1012.8
2022-12-19T03:33:42.173Z,1012.8
2022-12-19T03:34:42.166Z,1012.8
2022-12-19T03:35:42.165Z,1012.8
2022-12-19T03:36:42.176Z,1012.7
2022-12-19T03:37:42.161Z,1012.7
2022-12-19T03:38:42.163Z,1012.8
2022-12-19T03:39:42.162Z,1012.8
2022-12-19T03:40:42.186Z,1012.8
2022-12-19T03:41:42.175Z,1012.7
2022-12-19T03:42:42.160Z,1012.7
2022-12-19T03:43:42.165Z,1012.8
2022-12-19T03:44:42.165Z,1012.7
2022-12-19T03:46:42.163Z,1012.7
2022-12-19T03:47:42.164Z,1012.8
2022-12-19T03:48:42.159Z,1012.6
2022-12-19T03:49:42.228Z,1012.7
2022-12-19T03:50:42.161Z,1012.8
2022-12-19T03:51:42.158Z,1012.7
2022-12-19T03:52:42.165Z,1012.6
2022-12-19T03:53:42.164Z,1012.7
2022-12-19T03:54:42.185Z,1012.8
2022-12-19T03:55:42.169Z,1012.6
2022-12-19T03:57:42.169Z,1012.5
2022-12-19T03:59:42.164Z,1012.5
2022-12-19T04:00:42.282Z,1012.6
2022-12-19T04:01:42.342Z,1012.6
2022-12-19T04:02:42.159Z,1012.6
2022-12-19T04:03:42.246Z,1012.4
2022-12-19T04:04:42.166Z,1012.5
2022-12-19T04:05:42.168Z,1012.5
2022-12-19T04:06:42.167Z,1012.4
2022-12-19T04:07:42.161Z,1012.4
2022-12-19T04:08:42.169Z,1012.5
2022-12-19T04:09:42.164Z,1012.6
2022-12-19T04:11:42.159Z,1012.4
2022-12-19T04:12:42.165Z,1012.4
2022-12-19T04:13:42.237Z,1012.4
2022-12-19T04:15:42.272Z,1012.3
2022-12-19T04:16:42.163Z,1012.4
2022-12-19T04:18:42.189Z,1012.4
2022-12-19T04:19:42.765Z,1012.4
2022-12-19T04:20:42.186Z,1012.4
2022-12-19T04:21:42.167Z,1012.4
2022-12-19T04:22:42.163Z,1012.3
2022-12-19T04:23:42.171Z,1012.3
2022-12-19T04:24:42.170Z,1012.4
2022-12-19T04:25:42.160Z,1012.3
2022-12-19T04:26:42.161Z,1012.4
2022-12-19T04:27:42.222Z,1012.3
2022-12-19T04:28:42.165Z,1012.3
2022-12-19T04:29:42.180Z,1012.3
2022-12-19T04:30:42.307Z,1012.2
2022-12-19T04:32:42.193Z,1012.3
2022-12-19T04:33:42.165Z,1012.4
2022-12-19T04:34:43.102Z,1012.4
2022-12-19T04:36:42.153Z,1012.3
2022-12-19T04:37:42.167Z,1012.3
2022-12-19T04:38:42.162Z,1012.3
2022-12-19T04:39:42.189Z,1012.3
2022-12-19T04:40:42.174Z,1012.3
2022-12-19T04:41:42.183Z,1012.3
2022-12-19T04:42:42.163Z,1012.3
2022-12-19T04:43:42.168Z,1012.4
2022-12-19T04:44:42.163Z,1012.4
2022-12-19T04:45:42.163Z,1012.3
2022-12-19T04:46:42.219Z,1012.3
2022-12-19T04:47:42.184Z,1012.4
2022-12-19T04:48:42.165Z,1012.4
2022-12-19T04:49:42.164Z,1012.2
2022-12-19T04:50:42.162Z,1012.4
2022-12-19T04:51:42.186Z,1012.4
2022-12-19T04:52:42.157Z,1012.2
2022-12-19T04:53:42.163Z,1012.2
2022-12-19T04:54:42.158Z,1012.3
2022-12-19T04:55:42.160Z,1012.2
2022-12-19T04:57:42.159Z,1012.1
2022-12-19T04:58:42.159Z,1012.1
2022-12-19T04:59:42.157Z,1012.1
2022-12-19T05:00:42.160Z,1012.1
2022-12-19T05:01:42.258Z,1012.1
2022-12-19T05:02:42.507Z,1012.1
2022-12-19T05:03:42.241Z,1012.1
2022-12-19T05:04:42.156Z,1012.1
2022-12-19T05:05:42.154Z,1012
2022-12-19T05:06:42.159Z,1012
2022-12-19T05:07:42.186Z,1012
2022-12-19T05:08:42.170Z,1012
2022-12-19T05:09:42.185Z,1011.9
2022-12-19T05:10:42.161Z,1011.9
2022-12-19T05:11:42.153Z,1012
2022-12-19T05:12:42.150Z,1012
2022-12-19T05:13:42.169Z,1012
2022-12-19T05:15:42.191Z,1012
2022-12-19T05:16:42.158Z,1011.9
2022-12-19T05:17:42.155Z,1012
2022-12-19T05:18:42.155Z,1011.9
2022-12-19T05:19:42.165Z,1011.9
2022-12-19T05:20:42.152Z,1011.9
2022-12-19T05:21:42.156Z,1011.9
2022-12-19T05:22:42.155Z,1011.9
2022-12-19T05:23:42.162Z,1011.9
2022-12-19T05:24:42.166Z,1011.9
2022-12-19T05:25:42.154Z,1012
2022-12-19T05:26:42.163Z,1011.9
2022-12-19T05:27:42.153Z,1011.9
2022-12-19T05:28:42.158Z,1011.8
2022-12-19T05:29:42.164Z,1011.8
2022-12-19T05:30:42.156Z,1011.8
2022-12-19T05:31:42.238Z,1011.8
2022-12-19T05:32:42.157Z,1011.8
2022-12-19T05:33:42.316Z,1011.8
2022-12-19T05:34:42.168Z,1011.8
2022-12-19T05:35:42.156Z,1011.8
2022-12-19T05:36:42.151Z,1011.8
2022-12-19T05:37:42.150Z,1011.8
2022-12-19T05:38:42.160Z,1011.7
2022-12-19T05:40:42.167Z,1011.7
2022-12-19T05:41:43.623Z,1011.8
2022-12-19T05:42:42.166Z,1011.8
2022-12-19T05:43:42.154Z,1011.8
2022-12-19T05:44:42.170Z,1011.8
2022-12-19T05:45:42.163Z,1011.7
2022-12-19T05:46:42.241Z,1011.8
2022-12-19T05:47:42.148Z,1011.8
2022-12-19T05:48:42.149Z,1011.9
2022-12-19T05:49:42.147Z,1011.8
2022-12-19T05:50:42.147Z,1011.9
2022-12-19T05:51:42.172Z,1011.8
2022-12-19T05:52:42.147Z,1011.8
2022-12-19T05:53:42.148Z,1011.8
2022-12-19T05:54:42.147Z,1011.9
2022-12-19T05:55:42.154Z,1011.9
2022-12-19T05:56:42.158Z,1011.9
2022-12-19T05:57:42.154Z,1011.9
2022-12-19T05:58:42.150Z,1011.9
2022-12-19T05:59:42.156Z,1011.9
2022-12-19T06:00:42.153Z,1011.8
2022-12-19T06:01:42.272Z,1011.8
2022-12-19T06:02:42.341Z,1011.8
2022-12-19T06:03:42.199Z,1011.9
2022-12-19T06:04:42.269Z,1011.9
2022-12-19T06:05:42.148Z,1012
2022-12-19T06:06:42.537Z,1011.9
2022-12-19T06:07:42.155Z,1011.9
2022-12-19T06:08:42.155Z,1012.1
2022-12-19T06:09:42.149Z,1012
2022-12-19T06:10:42.164Z,1012
2022-12-19T06:11:42.153Z,1012
2022-12-19T06:12:42.154Z,1011.8
2022-12-19T06:13:42.228Z,1011.9
2022-12-19T06:14:42.162Z,1011.8
2022-12-19T06:16:42.191Z,1012
2022-12-19T06:17:42.149Z,1012
2022-12-19T06:18:44.825Z,1012
2022-12-19T06:19:42.152Z,1011.8
2022-12-19T06:20:42.142Z,1011.9
2022-12-19T06:21:47.884Z,1012
2022-12-19T06:22:42.147Z,1011.8
2022-12-19T06:23:42.148Z,1011.8
2022-12-19T06:24:42.153Z,1011.8
2022-12-19T06:25:42.145Z,1011.9
2022-12-19T06:26:42.147Z,1011.9
2022-12-19T06:30:42.150Z,1011.9
2022-12-19T06:31:52.471Z,1011.8
2022-12-19T06:32:52.433Z,1011.8
2022-12-19T06:33:52.460Z,1011.8
2022-12-19T06:37:42.148Z,1011.8
2022-12-19T06:38:42.141Z,1011.7
2022-12-19T06:52:42.301Z,1011.7
2022-12-19T06:53:42.154Z,1011.6
2022-12-19T06:54:42.154Z,1011.7
2022-12-19T06:56:02.725Z,1011.6
2022-12-19T07:01:11.193Z,1011.7
2022-12-19T07:03:52.423Z,1011.6
2022-12-19T07:04:52.462Z,1011.7
2022-12-19T07:05:42.145Z,1011.7
2022-12-19T07:06:46.018Z,1011.8
2022-12-19T07:21:42.146Z,1011.7
2022-12-19T07:22:42.146Z,1011.8
2022-12-19T07:24:02.707Z,1011.8
2022-12-19T07:44:52.975Z,1011.9
2022-12-19T07:50:42.135Z,1011.9
2022-12-19T07:51:42.130Z,1011.9
2022-12-19T07:53:42.133Z,1011.9
2022-12-19T07:54:42.135Z,1012
2022-12-19T07:55:42.136Z,1012
2022-12-19T07:56:42.184Z,1012
2022-12-19T07:57:42.128Z,1011.9
2022-12-19T07:58:42.147Z,1011.9
2022-12-19T07:59:42.128Z,1012
2022-12-19T08:00:42.318Z,1011.9
2022-12-19T08:01:42.254Z,1012
2022-12-19T08:02:42.388Z,1012
2022-12-19T08:03:42.128Z,1012.1
2022-12-19T08:05:42.132Z,1012
2022-12-19T08:06:42.134Z,1012.1
2022-12-19T08:07:42.131Z,1012.1
2022-12-19T08:08:42.129Z,1012
2022-12-19T08:09:42.132Z,1012.1
2022-12-19T08:10:42.148Z,1012.1
2022-12-19T08:11:42.129Z,1012.1
2022-12-19T08:12:42.180Z,1012.1
2022-12-19T08:13:46.374Z,1012
2022-12-19T08:14:42.135Z,1012.1
2022-12-19T08:15:42.169Z,1012.1
2022-12-19T08:17:18.171Z,1012.1
2022-12-19T08:17:42.175Z,1012.1
2022-12-19T08:19:42.124Z,1012.1
2022-12-19T08:23:53.443Z,1012.1
2022-12-19T08:24:52.416Z,1012
2022-12-19T08:25:52.413Z,1012
2022-12-19T08:27:02.695Z,1012
2022-12-19T08:29:02.736Z,1012
2022-12-19T08:30:52.633Z,1012.1
2022-12-19T08:31:52.442Z,1012.1
2022-12-19T08:34:52.413Z,1012.1
2022-12-19T08:35:52.417Z,1012.2
2022-12-19T08:36:52.413Z,1012.2
2022-12-19T08:39:52.413Z,1012.2
2022-12-19T08:40:52.416Z,1012.1
2022-12-19T08:41:52.523Z,1012.2
2022-12-19T08:42:52.413Z,1012.2
2022-12-19T08:43:52.431Z,1012.2
2022-12-19T08:44:52.408Z,1012.3
2022-12-19T08:45:52.509Z,1012.3
2022-12-19T08:46:52.425Z,1012.2
2022-12-19T08:47:42.136Z,1012.3
2022-12-19T08:48:42.135Z,1012.3
2022-12-19T08:49:42.142Z,1012.3
2022-12-19T08:50:42.125Z,1012.3
2022-12-19T08:55:42.159Z,1012.3
2022-12-19T08:57:02.700Z,1012.2
2022-12-19T08:58:04.390Z,1012.3
2022-12-19T08:58:52.430Z,1012.3
2022-12-19T08:59:52.416Z,1012.3
2022-12-19T09:13:52.418Z,1012.1
2022-12-19T09:15:02.689Z,1012.2
2022-12-19T09:20:52.415Z,1012.2
2022-12-19T09:21:52.416Z,1012.3
2022-12-19T09:23:42.124Z,1012.3
2022-12-19T09:24:42.130Z,1012.4
2022-12-19T09:25:42.137Z,1012.4
2022-12-19T09:26:42.179Z,1012.3
2022-12-19T09:28:01.613Z,1012.4
2022-12-19T09:34:42.134Z,1012.3
2022-12-19T09:36:02.717Z,1012.2
2022-12-19T09:37:56.620Z,1012.2
2022-12-19T09:38:52.408Z,1012.3
2022-12-19T09:39:52.414Z,1012.3
2022-12-19T09:40:42.131Z,1012.3
2022-12-19T09:42:42.132Z,1012.3
2022-12-19T09:43:42.133Z,1012.3
2022-12-19T09:44:42.132Z,1012.3
2022-12-19T09:45:42.132Z,1012.3
2022-12-19T09:46:52.430Z,1012.3
2022-12-19T09:48:55.018Z,1012.2
2022-12-19T09:49:52.543Z,1012.2
2022-12-19T09:51:10.577Z,1012.2
2022-12-19T09:52:04.386Z,1012.2
2022-12-19T09:52:52.407Z,1012.2
2022-12-19T09:53:54.342Z,1012.2
2022-12-19T09:54:52.407Z,1012.1
2022-12-19T09:55:42.134Z,1012.2
2022-12-19T09:57:02.708Z,1012.2
2022-12-19T09:58:52.426Z,1012.2
2022-12-19T09:59:52.420Z,1012.1
2022-12-19T10:00:56.452Z,1012.1
2022-12-19T10:01:42.233Z,1012.1
2022-12-19T10:02:42.424Z,1012.2
2022-12-19T10:03:42.204Z,1012.2
2022-12-19T10:04:42.124Z,1012.2
2022-12-19T10:06:25.530Z,1012.3
2022-12-19T10:07:22.150Z,1012.4
2022-12-19T10:08:05.460Z,1012.4
2022-12-19T10:09:49.986Z,1012.4
2022-12-19T10:12:11.388Z,1012.3
2022-12-19T10:12:42.572Z,1012.3
2022-12-19T10:12:43.777Z,1012.3
2022-12-19T10:12:53.035Z,1012.4
2022-12-19T10:13:42.124Z,1012.3
2022-12-19T10:14:42.155Z,1012.4
2022-12-19T10:15:42.174Z,1012.4
2022-12-19T10:16:52.020Z,1012.4
2022-12-19T10:18:42.119Z,1012.3
2022-12-19T10:19:42.123Z,1012.3
2022-12-19T10:20:42.266Z,1012.3
2022-12-19T10:24:42.130Z,1012.2
2022-12-19T10:26:52.423Z,1012.2
2022-12-19T10:27:58.869Z,1012.3
2022-12-19T10:28:42.143Z,1012.1
2022-12-19T10:29:42.140Z,1012.2
2022-12-19T10:30:42.413Z,1012.1
2022-12-19T10:31:42.198Z,1012.1
2022-12-19T10:32:42.147Z,1012.1
2022-12-19T10:33:42.131Z,1012.1
2022-12-19T10:34:42.129Z,1012.1
2022-12-19T10:35:42.128Z,1012.1
2022-12-19T10:37:12.981Z,1012.1
2022-12-19T10:37:47.460Z,1012.1
2022-12-19T10:39:42.120Z,1012.1
2022-12-19T10:40:42.159Z,1012.1
2022-12-19T10:41:44.234Z,1012.1
2022-12-19T10:42:42.160Z,1012
2022-12-19T10:44:42.125Z,1012
2022-12-19T10:54:02.706Z,1012
2022-12-19T10:55:04.377Z,1012
2022-12-19T10:55:52.409Z,1012.1
2022-12-19T10:56:52.404Z,1012.1
2022-12-19T10:57:52.419Z,1012
2022-12-19T10:58:42.132Z,1012
2022-12-19T10:59:42.165Z,1012
2022-12-19T11:00:42.149Z,1012
2022-12-19T11:01:42.308Z,1012
2022-12-19T11:02:42.314Z,1012
2022-12-19T11:03:42.218Z,1012
2022-12-19T11:04:42.177Z,1012
2022-12-19T11:05:42.147Z,1012.1
2022-12-19T11:06:42.137Z,1012
2022-12-19T11:07:42.276Z,1012
2022-12-19T11:08:42.121Z,1012
2022-12-19T11:09:46.009Z,1011.9
2022-12-19T11:11:58.013Z,1011.9
2022-12-19T11:13:20.381Z,1011.9
2022-12-19T11:16:09.545Z,1011.9
2022-12-19T11:18:28.419Z,1011.9
2022-12-19T11:19:34.876Z,1011.8
2022-12-19T11:20:17.863Z,1011.8
2022-12-19T11:22:20.656Z,1011.8
2022-12-19T11:24:29.981Z,1011.9
2022-12-19T11:26:36.267Z,1011.8
2022-12-19T11:29:25.719Z,1011.9
2022-12-19T11:29:35.140Z,1011.8
2022-12-19T11:29:36.672Z,1011.7
2022-12-19T11:29:42.048Z,1011.8
2022-12-19T11:30:42.889Z,1011.7
2022-12-19T11:31:50.906Z,1011.6
2022-12-19T11:32:52.497Z,1011.7
2022-12-19T11:33:42.215Z,1011.7
2022-12-19T11:34:42.124Z,1011.8
2022-12-19T11:35:42.151Z,1011.7
2022-12-19T11:36:42.128Z,1011.8
2022-12-19T11:37:42.150Z,1011.8
2022-12-19T11:38:42.130Z,1011.8
2022-12-19T11:39:42.133Z,1011.7
2022-12-19T11:40:48.729Z,1011.8
2022-12-19T11:41:42.123Z,1011.9
2022-12-19T11:42:42.264Z,1011.8
2022-12-19T11:43:44.324Z,1011.8
2022-12-19T11:44:42.139Z,1011.8
2022-12-19T11:45:42.137Z,1011.7
2022-12-19T11:46:42.114Z,1011.7
2022-12-19T11:47:42.148Z,1011.8
2022-12-19T11:48:42.119Z,1011.8
2022-12-19T11:49:42.118Z,1011.8
2022-12-19T11:50:42.121Z,1011.8
2022-12-19T11:51:42.127Z,1011.8
2022-12-19T11:53:42.118Z,1011.7
2022-12-19T11:54:42.121Z,1011.7
2022-12-19T11:55:42.130Z,1011.8
2022-12-19T11:56:42.119Z,1011.7
2022-12-19T11:57:42.116Z,1011.7
2022-12-19T11:58:42.123Z,1011.7
2022-12-19T11:59:42.134Z,1011.8
2022-12-19T12:00:42.124Z,1011.8
2022-12-19T12:01:42.210Z,1011.7
2022-12-19T12:02:42.120Z,1011.7
2022-12-19T12:03:42.265Z,1011.7
2022-12-19T12:04:42.191Z,1011.8
2022-12-19T12:05:42.120Z,1011.8
2022-12-19T12:06:45.378Z,1011.7
2022-12-19T12:09:13.048Z,1011.8
2022-12-19T12:10:12.827Z,1011.7
2022-12-19T12:13:19.113Z,1011.8
2022-12-19T12:15:34.537Z,1011.8
2022-12-19T12:19:07.672Z,1011.7
2022-12-19T12:22:11.981Z,1011.8
2022-12-19T12:27:12.276Z,1011.7
2022-12-19T12:27:31.656Z,1011.7
2022-12-19T12:28:26.969Z,1011.7
2022-12-19T12:30:34.473Z,1011.7
2022-12-19T12:31:05.842Z,1011.7
2022-12-19T12:31:11.913Z,1011.6
2022-12-19T12:31:16.967Z,1011.7
2022-12-19T12:31:17.765Z,1011.6
2022-12-19T12:31:22.909Z,1011.5
2022-12-19T12:31:26.818Z,1011.6
2022-12-19T12:31:28.730Z,1011.6
2022-12-19T12:31:41.875Z,1011.6
2022-12-19T12:31:49.080Z,1011.6
2022-12-19T12:31:58.103Z,1011.6
2022-12-19T12:32:00.973Z,1011.6
2022-12-19T12:32:05.395Z,1011.5
2022-12-19T12:35:07.249Z,1011.5
2022-12-19T12:35:30.669Z,1011.5
2022-12-19T12:35:33.640Z,1011.4
2022-12-19T12:37:51.501Z,1011.5
2022-12-19T12:38:10.880Z,1011.5
2022-12-19T12:38:42.456Z,1011.4
2022-12-19T12:39:42.128Z,1011.4
2022-12-19T12:40:42.118Z,1011.4
2022-12-19T12:41:42.120Z,1011.4
2022-12-19T12:42:42.140Z,1011.4
2022-12-19T12:43:42.137Z,1011.4
2022-12-19T12:44:45.961Z,1011.4
2022-12-19T12:45:42.186Z,1011.4
2022-12-19T12:46:42.127Z,1011.4
2022-12-19T12:47:42.120Z,1011.4
2022-12-19T12:48:42.121Z,1011.4
2022-12-19T12:49:42.132Z,1011.4
2022-12-19T12:50:42.126Z,1011.3
2022-12-19T12:51:42.147Z,1011.3
2022-12-19T12:52:42.129Z,1011.3
2022-12-19T12:53:42.154Z,1011.2
2022-12-19T12:54:42.162Z,1011.2
2022-12-19T12:55:42.121Z,1011.2
2022-12-19T12:56:42.131Z,1011.2
2022-12-19T12:57:42.141Z,1011.2
2022-12-19T12:58:42.137Z,1011.3
2022-12-19T12:59:42.124Z,1011.2
2022-12-19T13:00:42.133Z,1011.2
2022-12-19T13:01:42.237Z,1011.3
2022-12-19T13:02:42.251Z,1011.3
2022-12-19T13:03:42.249Z,1011.3
2022-12-19T13:04:42.126Z,1011.2
2022-12-19T13:05:42.124Z,1011.3
2022-12-19T13:06:42.127Z,1011.3
2022-12-19T13:07:42.119Z,1011.2
2022-12-19T13:08:42.127Z,1011.2
2022-12-19T13:09:42.130Z,1011.2
2022-12-19T13:11:42.135Z,1011.2
2022-12-19T13:12:42.130Z,1011.1
2022-12-19T13:13:42.133Z,1011.2
2022-12-19T13:14:42.123Z,1011.2
2022-12-19T13:15:42.201Z,1011.2
2022-12-19T13:16:42.180Z,1011.2
2022-12-19T13:17:42.132Z,1011.1
2022-12-19T13:18:42.160Z,1011.2
2022-12-19T13:19:42.143Z,1011.2
2022-12-19T13:20:42.119Z,1011.1
2022-12-19T13:21:42.128Z,1011.1
2022-12-19T13:22:42.124Z,1011.1
2022-12-19T13:23:42.122Z,1011.1
2022-12-19T13:24:42.142Z,1011.1
2022-12-19T13:25:42.119Z,1011
2022-12-19T13:26:42.131Z,1011
2022-12-19T13:27:42.133Z,1011.1
2022-12-19T13:28:42.119Z,1011
2022-12-19T13:29:42.129Z,1011
2022-12-19T13:31:15.009Z,1010.9
2022-12-19T13:31:42.136Z,1011
2022-12-19T13:32:42.144Z,1011
2022-12-19T13:33:42.132Z,1011
2022-12-19T13:34:50.481Z,1010.9
2022-12-19T13:36:49.303Z,1011
2022-12-19T13:39:50.024Z,1011
2022-12-19T13:39:52.338Z,1011
2022-12-19T13:40:01.584Z,1011
2022-12-19T13:40:42.152Z,1010.9
2022-12-19T13:41:42.124Z,1011
2022-12-19T13:42:42.130Z,1010.9
2022-12-19T13:43:42.129Z,1010.9
2022-12-19T13:44:42.135Z,1010.8
2022-12-19T13:45:42.158Z,1010.9
2022-12-19T13:46:42.832Z,1010.8
2022-12-19T13:47:42.149Z,1010.9
2022-12-19T13:48:42.118Z,1010.8
2022-12-19T13:49:42.122Z,1010.8
2022-12-19T13:50:42.128Z,1010.8
2022-12-19T13:51:42.130Z,1010.9
2022-12-19T13:52:42.128Z,1010.9
2022-12-19T13:53:42.131Z,1010.9
2022-12-19T13:54:42.129Z,1010.8
2022-12-19T13:55:42.122Z,1010.8
2022-12-19T13:56:42.129Z,1010.9
2022-12-19T13:57:42.150Z,1010.9
2022-12-19T13:58:42.144Z,1010.9
2022-12-19T13:59:54.405Z,1010.9
2022-12-19T14:00:42.130Z,1010.9
2022-12-19T14:01:42.241Z,1010.8
2022-12-19T14:02:44.961Z,1010.8
2022-12-19T14:03:43.191Z,1010.8
2022-12-19T14:04:42.126Z,1010.8
2022-12-19T14:06:16.782Z,1010.8
2022-12-19T14:07:42.117Z,1010.8
2022-12-19T14:08:42.125Z,1010.7
2022-12-19T14:11:25.545Z,1010.7
2022-12-19T14:11:36.190Z,1010.7
2022-12-19T14:12:26.886Z,1010.7
2022-12-19T14:13:56.929Z,1010.7
2022-12-19T14:14:42.123Z,1010.7
2022-12-19T14:15:42.165Z,1010.6
2022-12-19T14:16:44.544Z,1010.6
2022-12-19T14:17:42.157Z,1010.6
2022-12-19T14:18:45.962Z,1010.7
2022-12-19T14:19:42.126Z,1010.6
2022-12-19T14:22:07.322Z,1010.5
2022-12-19T14:22:11.706Z,1010.5
2022-12-19T14:22:42.132Z,1010.4
2022-12-19T14:23:43.467Z,1010.4
2022-12-19T14:24:42.120Z,1010.5
2022-12-19T14:28:14.210Z,1010.4
2022-12-19T14:28:19.656Z,1010.5
2022-12-19T14:28:21.385Z,1010.5
2022-12-19T14:28:42.126Z,1010.5
2022-12-19T14:30:08.567Z,1010.6
2022-12-19T14:30:42.164Z,1010.5
2022-12-19T14:31:58.421Z,1010.5
2022-12-19T14:33:59.093Z,1010.5
2022-12-19T14:35:29.801Z,1010.5
2022-12-19T14:36:06.540Z,1010.5
2022-12-19T14:36:42.122Z,1010.5
2022-12-19T14:39:01.258Z,1010.6
2022-12-19T14:39:22.265Z,1010.5
2022-12-19T14:39:42.120Z,1010.6
2022-12-19T14:41:00.245Z,1010.6
2022-12-19T14:41:42.126Z,1010.5
2022-12-19T14:43:56.903Z,1010.5
2022-12-19T14:43:59.202Z,1010.5
2022-12-19T14:52:35.041Z,1010.5
2022-12-19T14:54:05.914Z,1010.4
2022-12-19T14:54:07.888Z,1010.5
2022-12-19T14:54:07.891Z,1010.4
2022-12-19T14:54:08.509Z,1010.6
2022-12-19T14:54:09.042Z,1010.4
2022-12-19T14:54:21.965Z,1010.3
2022-12-19T14:54:26.804Z,1010.4
2022-12-19T14:54:30.695Z,1010.4
2022-12-19T14:54:41.910Z,1010.5
2022-12-19T14:56:16.054Z,1010.5
2022-12-19T14:56:19.651Z,1010.4
2022-12-19T14:57:02.796Z,1010.5
2022-12-19T14:58:53.315Z,1010.4
2022-12-19T14:58:54.463Z,1010.4
2022-12-19T14:59:42.203Z,1010.4
2022-12-19T15:01:09.984Z,1010.4
2022-12-19T15:01:42.206Z,1010.5
2022-12-19T15:02:42.315Z,1010.5
2022-12-19T15:07:08.848Z,1010.5
2022-12-19T15:07:42.131Z,1010.3
2022-12-19T15:09:50.713Z,1010.2
2022-12-19T15:11:06.812Z,1010.2
2022-12-19T15:11:09.297Z,1010.2
2022-12-19T15:11:54.066Z,1010.2
2022-12-19T15:14:52.854Z,1010.1
2022-12-19T15:14:56.320Z,1010.2
2022-12-19T15:14:56.870Z,1010
2022-12-19T15:15:42.161Z,1010.1
2022-12-19T15:16:42.183Z,1010
2022-12-19T15:17:42.117Z,1010
2022-12-19T15:18:42.129Z,1010
2022-12-19T15:19:42.123Z,1010
2022-12-19T15:20:42.125Z,1010
2022-12-19T15:21:42.124Z,1010
2022-12-19T15:22:42.125Z,1009.9
2022-12-19T15:23:42.142Z,1009.9
2022-12-19T15:24:42.132Z,1009.9
2022-12-19T15:26:03.313Z,1009.9
2022-12-19T15:26:42.121Z,1009.9
2022-12-19T15:27:42.114Z,1010
2022-12-19T15:28:42.132Z,1010
2022-12-19T15:29:42.127Z,1010
2022-12-19T15:30:42.119Z,1010